Time;durP1;ratioP1;P1;durP2;ratioP2;P2;SDS_P1;SDS_P2;PMS_P1;PMS_P2;Temp;Humidity;BMP_temperature;BMP_pressure;BME280_temperature;BME280_humidity;BME280_pressure;Samples;Min_cycle;Max_cycle;Signal;HPM_P1;HPM_P2
2023/08/21 00:01:35;;;;;;;4.60;3.10;;;;;;;23.61;44.99;101277.83;107434;1254;108264;-62
2023/08/21 00:04:04;;;;;;;11.80;3.10;;;;;;;23.59;45.04;101276.77;107436;1254;97822;-61
2023/08/21 00:06:32;;;;;;;9.70;3.50;;;;;;;23.55;45.27;101276.77;107447;1254;97906;-62
2023/08/21 00:09:02;;;;;;;8.80;3.10;;;;;;;23.52;45.15;101280.06;107450;1254;110828;-62
2023/08/21 00:11:30;;;;;;;6.60;3.50;;;;;;;23.51;45.23;101281.95;107355;1254;108749;-62
2023/08/21 00:13:58;;;;;;;14.20;3.90;;;;;;;23.51;45.33;101279.54;107390;1254;107974;-62
2023/08/21 00:16:28;;;;;;;6.20;3.60;;;;;;;23.51;45.23;101277.73;107418;1254;97932;-62
2023/08/21 00:18:57;;;;;;;9.10;2.90;;;;;;;23.50;45.25;101276.95;107440;1254;97850;-64
2023/08/21 00:21:25;;;;;;;12.90;3.40;;;;;;;23.50;45.37;101279.70;107415;1254;110786;-61
2023/08/21 00:23:55;;;;;;;11.80;4.20;;;;;;;23.48;45.82;101285.61;107354;1256;110076;-62
2023/08/21 00:26:23;;;;;;;5.00;3.30;;;;;;;23.44;45.58;101284.86;107410;1254;108233;-60
2023/08/21 00:28:51;;;;;;;9.00;3.60;;;;;;;23.41;45.86;101284.98;107415;1254;97834;-61
2023/08/21 00:31:20;;;;;;;14.40;3.80;;;;;;;23.38;46.00;101288.40;107473;1254;97716;-61
2023/08/21 00:33:49;;;;;;;11.20;3.60;;;;;;;23.36;45.87;101284.86;107435;1254;112304;-61
2023/08/21 00:36:19;;;;;;;9.10;3.20;;;;;;;23.37;46.02;101288.15;107306;1253;108983;-61
2023/08/21 00:38:48;;;;;;;8.50;4.30;;;;;;;23.38;45.99;101286.79;107395;1257;106529;-60
2023/08/21 00:41:16;;;;;;;10.50;3.60;;;;;;;23.33;45.84;101282.98;107367;1254;98390;-62
2023/08/21 00:43:45;;;;;;;7.10;3.70;;;;;;;23.34;45.99;101287.20;107429;1254;98389;-63
2023/08/21 00:46:15;;;;;;;11.90;3.60;;;;;;;23.36;46.12;101285.06;107396;1253;111705;-61
2023/08/21 00:48:44;;;;;;;11.80;3.70;;;;;;;23.36;46.33;101287.21;107384;1257;108556;-61
2023/08/21 00:51:16;;;;;;;9.20;3.60;;;;;;;23.32;46.33;101287.46;107393;1257;106843;-61
2023/08/21 00:53:44;;;;;;;10.90;4.00;;;;;;;23.23;46.94;101290.23;107412;1257;97875;-62
2023/08/21 00:56:14;;;;;;;8.30;3.70;;;;;;;23.17;46.79;101289.57;107459;1254;98372;-61
2023/08/21 00:58:42;;;;;;;8.50;3.80;;;;;;;23.13;47.01;101291.15;107487;1254;110624;-63
2023/08/21 01:01:14;;;;;;;12.00;3.40;;;;;;;23.12;46.90;101287.48;107438;1253;109652;-61
2023/08/21 01:03:43;;;;;;;7.60;3.50;;;;;;;23.12;47.11;101288.70;107177;1254;108335;-61
2023/08/21 01:06:11;;;;;;;6.90;4.00;;;;;;;23.13;47.07;101284.92;107415;1254;97843;-62
2023/08/21 01:08:40;;;;;;;12.80;4.50;;;;;;;23.13;47.48;101292.30;107386;1257;97734;-62
2023/08/21 01:11:24;;;;;;;6.10;3.60;;;;;;;23.08;47.36;101289.84;107402;1259;112117;-61
2023/08/21 01:14:01;;;;;;;8.70;3.80;;;;;;;23.07;47.40;101287.59;107410;1254;109361;-62
2023/08/21 01:16:32;;;;;;;10.50;3.80;;;;;;;23.09;47.21;101283.16;107392;1254;107880;-61
2023/08/21 01:19:03;;;;;;;7.80;3.80;;;;;;;23.09;47.24;101287.08;107456;1253;97800;-62
2023/08/21 01:21:32;;;;;;;11.50;4.10;;;;;;;23.09;47.78;101290.30;107405;1254;97768;-61
2023/08/21 01:24:00;;;;;;;7.50;4.00;;;;;;;23.07;48.21;101293.50;107381;1256;112652;-63
2023/08/21 01:26:28;;;;;;;7.50;3.50;;;;;;;23.03;48.65;101293.98;107436;1254;109257;-63
2023/08/21 01:28:56;;;;;;;9.60;3.90;;;;;;;23.01;48.79;101295.97;107428;1257;108487;-62
2023/08/21 01:31:31;;;;;;;8.10;3.70;;;;;;;22.99;49.01;101301.36;107412;1254;97597;-62
2023/08/21 01:34:04;;;;;;;8.50;3.90;;;;;;;22.93;48.80;101302.79;107417;1256;97734;-61
2023/08/21 01:36:34;;;;;;;20.00;4.50;;;;;;;22.92;49.36;101300.41;107393;1254;110472;-62
2023/08/21 01:39:03;;;;;;;6.30;3.60;;;;;;;22.85;49.35;101296.29;107446;1254;109663;-61
2023/08/21 01:41:31;;;;;;;19.60;3.60;;;;;;;22.81;49.39;101297.09;107441;1257;107245;-62
2023/08/21 01:44:00;;;;;;;8.50;3.90;;;;;;;22.77;49.54;101297.86;107411;1253;97831;-62
2023/08/21 01:46:29;;;;;;;12.10;3.90;;;;;;;22.70;49.73;101297.58;107430;1257;97739;-63
2023/08/21 01:48:57;;;;;;;6.40;3.70;;;;;;;22.66;49.99;101300.18;107419;1257;111886;-61
2023/08/21 01:51:25;;;;;;;12.60;3.90;;;;;;;22.64;50.04;101304.94;107441;1254;109055;-62
2023/08/21 01:53:54;;;;;;;10.30;3.90;;;;;;;22.61;50.39;101312.72;107384;1254;108258;-62
2023/08/21 01:56:23;;;;;;;12.50;3.80;;;;;;;22.57;50.65;101310.35;107305;1254;97866;-62
2023/08/21 01:58:51;;;;;;;7.10;4.20;;;;;;;22.52;50.90;101312.02;107297;1257;98492;-62
2023/08/21 02:01:19;;;;;;;7.40;4.20;;;;;;;22.49;50.81;101310.90;107399;1257;111715;-61
2023/08/21 02:03:48;;;;;;;8.60;4.10;;;;;;;22.47;50.93;101311.01;107397;1254;109338;-62
2023/08/21 02:06:16;;;;;;;14.60;4.50;;;;;;;22.44;51.09;101309.95;107384;1254;107797;-61
2023/08/21 02:08:45;;;;;;;8.90;4.30;;;;;;;22.41;51.28;101306.89;107385;1254;97850;-61
2023/08/21 02:11:14;;;;;;;8.80;4.10;;;;;;;22.39;51.43;101302.98;107359;1254;97884;-61
2023/08/21 02:13:42;;;;;;;11.00;4.30;;;;;;;22.37;51.49;101298.10;107420;1253;111802;-62
2023/08/21 02:16:10;;;;;;;14.20;4.10;;;;;;;22.34;51.54;101297.88;107313;1254;109694;-61
2023/08/21 02:18:39;;;;;;;7.60;4.30;;;;;;;22.33;51.74;101294.91;107415;1254;106942;-62
2023/08/21 02:21:07;;;;;;;9.40;4.70;;;;;;;22.31;52.00;101292.13;107400;1254;97838;-62
2023/08/21 02:23:35;;;;;;;9.90;4.50;;;;;;;22.28;52.25;101289.27;107452;1254;98370;-61
2023/08/21 02:26:05;;;;;;;13.10;5.40;;;;;;;22.23;52.36;101288.70;107428;1254;110667;-62
2023/08/21 02:28:33;;;;;;;6.80;4.20;;;;;;;22.19;52.60;101290.13;107277;1257;109972;-62
2023/08/21 02:31:01;;;;;;;9.40;4.70;;;;;;;22.14;52.81;101293.33;107352;1256;108279;-62
2023/08/21 02:33:31;;;;;;;7.60;3.90;;;;;;;22.11;53.15;101295.11;107281;1254;97984;-61
2023/08/21 02:35:59;;;;;;;10.10;4.80;;;;;;;22.05;53.25;101296.52;107398;1254;97746;-61
2023/08/21 02:38:30;;;;;;;6.70;4.30;;;;;;;21.98;54.22;101296.58;107248;1256;111533;-61
2023/08/21 02:40:58;;;;;;;18.30;4.80;;;;;;;21.90;54.37;101303.01;107359;1257;110249;-62
2023/08/21 02:43:26;;;;;;;6.20;4.60;;;;;;;21.86;54.42;101302.70;107418;1254;107637;-62
2023/08/21 02:45:55;;;;;;;11.40;5.10;;;;;;;21.79;54.91;101305.16;107378;1256;97960;-61
2023/08/21 02:48:23;;;;;;;7.10;4.90;;;;;;;21.73;55.73;101308.69;107409;1254;98366;-61
2023/08/21 02:50:52;;;;;;;10.30;4.80;;;;;;;21.64;55.58;101303.69;107436;1254;110172;-61
2023/08/21 02:53:21;;;;;;;13.20;5.00;;;;;;;21.58;55.38;101304.92;107384;1257;109181;-61
2023/08/21 02:55:49;;;;;;;11.20;4.80;;;;;;;21.55;55.60;101308.20;107324;1257;107036;-62
2023/08/21 02:58:17;;;;;;;11.20;5.20;;;;;;;21.51;56.25;101308.13;107375;1254;97723;-62
2023/08/21 03:00:46;;;;;;;7.50;5.00;;;;;;;21.46;56.82;101308.23;107405;1254;97764;-62
2023/08/21 03:03:14;;;;;;;9.30;5.20;;;;;;;21.42;56.39;101313.30;107400;1254;113730;-62
2023/08/21 03:05:42;;;;;;;9.50;4.70;;;;;;;21.40;56.48;101313.05;107326;1254;109387;-62
2023/08/21 03:08:11;;;;;;;23.10;5.50;;;;;;;21.36;56.52;101312.14;107313;1254;108342;-61
2023/08/21 03:10:40;;;;;;;11.90;4.70;;;;;;;21.33;56.49;101310.98;107244;1260;97826;-62
2023/08/21 03:13:08;;;;;;;9.90;5.00;;;;;;;21.33;56.87;101317.71;107374;1254;99600;-62
2023/08/21 03:15:36;;;;;;;15.50;5.00;;;;;;;21.33;56.96;101319.52;107293;1254;111945;-61
2023/08/21 03:18:04;;;;;;;8.50;5.10;;;;;;;21.34;57.15;101317.08;107389;1257;110918;-61
2023/08/21 03:20:33;;;;;;;15.20;6.40;;;;;;;21.36;57.17;101315.69;107293;1254;108160;-63
2023/08/21 03:23:01;;;;;;;18.80;7.10;;;;;;;21.40;57.20;101310.59;107225;1257;97838;-61
2023/08/21 03:25:29;;;;;;;15.00;6.60;;;;;;;21.47;57.32;101316.58;107189;1257;97886;-61
2023/08/21 03:27:58;;;;;;;10.40;5.00;;;;;;;21.51;57.38;101314.44;107411;1254;111349;-60
2023/08/21 03:30:26;;;;;;;12.30;5.10;;;;;;;21.55;57.42;101316.42;107429;1254;109336;-61
2023/08/21 03:32:55;;;;;;;13.50;5.10;;;;;;;21.58;57.76;101318.41;107402;1254;107827;-61
2023/08/21 03:35:24;;;;;;;10.00;4.80;;;;;;;21.58;58.06;101327.72;107389;1254;97911;-62
2023/08/21 03:37:53;;;;;;;15.70;5.10;;;;;;;21.59;57.77;101325.78;107401;1254;97924;-62
2023/08/21 03:40:22;;;;;;;18.20;5.30;;;;;;;21.62;57.82;101328.34;107333;1254;111089;-60
2023/08/21 03:42:51;;;;;;;14.10;5.50;;;;;;;21.62;58.09;101332.52;107425;1254;109690;-63
2023/08/21 03:45:21;;;;;;;21.40;5.40;;;;;;;21.63;58.03;101333.35;107399;1254;107210;-61
2023/08/21 03:47:49;;;;;;;14.80;5.20;;;;;;;21.68;58.01;101338.77;107401;1254;97875;-62
2023/08/21 03:50:20;;;;;;;16.00;6.00;;;;;;;21.71;57.97;101342.66;107423;1253;98468;-62
2023/08/21 03:52:49;;;;;;;10.90;5.00;;;;;;;21.73;57.80;101341.66;107393;1257;112115;-62
2023/08/21 03:55:17;;;;;;;21.50;5.80;;;;;;;21.75;57.93;101339.73;107380;1256;108743;-60
2023/08/21 03:57:45;;;;;;;14.30;6.00;;;;;;;21.74;57.86;101340.33;107356;1257;108180;-61
2023/08/21 04:00:15;;;;;;;15.60;5.40;;;;;;;21.77;58.28;101344.40;107183;1256;97840;-61
2023/08/21 04:02:43;;;;;;;11.50;5.10;;;;;;;21.77;57.98;101342.92;107430;1256;97848;-61
2023/08/21 04:05:12;;;;;;;14.40;5.90;;;;;;;21.78;58.36;101344.75;107453;1257;112083;-61
2023/08/21 04:07:40;;;;;;;17.10;6.00;;;;;;;21.79;58.20;101346.23;107400;1253;109728;-61
2023/08/21 04:10:09;;;;;;;16.70;8.70;;;;;;;21.82;57.97;101349.30;107317;1257;108168;-61
2023/08/21 04:12:37;;;;;;;13.10;6.10;;;;;;;21.87;57.84;101352.89;107361;1256;97811;-61
2023/08/21 04:15:06;;;;;;;18.90;7.10;;;;;;;21.93;57.67;101353.30;107385;1254;97732;-61
2023/08/21 04:17:35;;;;;;;15.90;6.20;;;;;;;21.99;57.63;101360.65;107370;1260;110919;-61
2023/08/21 04:20:05;;;;;;;18.10;6.20;;;;;;;22.04;57.77;101363.69;107448;1254;108677;-61
2023/08/21 04:22:34;;;;;;;19.80;6.50;;;;;;;22.07;57.96;101364.46;107466;1254;107460;-61
2023/08/21 04:25:06;;;;;;;11.10;6.50;;;;;;;22.08;57.96;101361.88;107285;1254;97826;-63
2023/08/21 04:27:35;;;;;;;18.00;6.20;;;;;;;22.08;58.13;101369.20;107369;1254;97822;-61
2023/08/21 04:30:05;;;;;;;13.90;6.20;;;;;;;22.10;57.88;101369.04;107396;1254;111483;-61
2023/08/21 04:32:33;;;;;;;12.80;6.40;;;;;;;22.12;58.28;101368.42;107367;1254;109739;-61
2023/08/21 04:35:01;;;;;;;15.10;6.90;;;;;;;22.10;58.22;101369.49;107312;1254;108529;-62
2023/08/21 04:37:31;;;;;;;21.80;6.10;;;;;;;22.11;58.38;101373.05;107272;1254;97886;-62
2023/08/21 04:40:00;;;;;;;18.80;5.90;;;;;;;22.13;58.39;101373.50;107487;1254;97879;-61
2023/08/21 04:42:29;;;;;;;8.70;6.40;;;;;;;22.19;58.18;101379.10;107415;1254;112252;-61
2023/08/21 04:44:58;;;;;;;18.40;6.20;;;;;;;22.26;57.83;101377.04;107386;1257;109705;-61
2023/08/21 04:47:28;;;;;;;19.90;6.40;;;;;;;22.33;58.01;101377.36;107353;1255;108478;-62
2023/08/21 04:49:58;;;;;;;10.70;6.50;;;;;;;22.39;57.84;101383.14;107392;1254;97931;-61
2023/08/21 04:52:28;;;;;;;13.60;6.50;;;;;;;22.42;57.68;101384.61;107274;1256;97765;-61
2023/08/21 04:54:57;;;;;;;20.80;7.60;;;;;;;22.46;58.01;101384.72;107434;1254;111657;-62
2023/08/21 04:57:25;;;;;;;13.20;6.70;;;;;;;22.49;58.04;101389.73;107431;1254;108184;-61
2023/08/21 04:59:53;;;;;;;11.60;6.80;;;;;;;22.56;58.05;101388.71;107352;1254;108388;-61
2023/08/21 05:02:22;;;;;;;14.80;9.50;;;;;;;22.61;58.55;101382.25;107432;1254;97815;-61
2023/08/21 05:04:51;;;;;;;10.40;7.10;;;;;;;22.67;58.30;101382.24;107395;1254;97745;-61
2023/08/21 05:07:20;;;;;;;14.90;6.80;;;;;;;22.75;58.31;101391.33;107459;1253;111403;-62
2023/08/21 05:09:49;;;;;;;19.30;7.80;;;;;;;22.81;58.26;101395.41;107402;1254;109783;-61
2023/08/21 05:12:19;;;;;;;18.80;7.30;;;;;;;22.84;59.32;101394.95;107323;1260;108351;-60
2023/08/21 05:14:47;;;;;;;17.60;7.70;;;;;;;22.82;59.34;101388.70;107371;1253;97821;-62
2023/08/21 05:17:15;;;;;;;16.80;7.00;;;;;;;22.87;59.02;101383.91;107402;1254;97749;-61
2023/08/21 05:19:43;;;;;;;12.30;6.40;;;;;;;22.95;59.12;101389.79;107378;1254;111414;-61
2023/08/21 05:22:12;;;;;;;12.80;6.50;;;;;;;23.05;58.79;101393.27;107379;1257;109401;-61
2023/08/21 05:24:40;;;;;;;17.60;6.80;;;;;;;23.11;58.93;101393.02;107328;1254;107068;-61
2023/08/21 05:27:09;;;;;;;21.50;7.20;;;;;;;23.17;58.91;101393.27;107414;1257;97854;-62
2023/08/21 05:29:38;;;;;;;15.10;6.60;;;;;;;23.25;58.70;101389.73;107339;1254;97860;-60
2023/08/21 05:32:06;;;;;;;15.70;7.20;;;;;;;23.34;58.78;101390.00;107295;1254;111269;-62
2023/08/21 05:34:35;;;;;;;17.80;7.20;;;;;;;23.37;59.17;101395.77;107384;1254;109059;-61
2023/08/21 05:37:04;;;;;;;16.10;7.40;;;;;;;23.38;59.44;101393.82;107266;1260;108035;-62
2023/08/21 05:39:33;;;;;;;13.80;7.30;;;;;;;23.44;58.90;101391.08;107410;1254;97835;-61
2023/08/21 05:42:03;;;;;;;24.50;7.80;;;;;;;23.51;58.97;101387.56;107332;1254;98369;-62
2023/08/21 05:44:32;;;;;;;18.40;7.40;;;;;;;23.56;59.06;101382.77;107385;1254;111286;-61
2023/08/21 05:47:01;;;;;;;16.50;8.20;;;;;;;23.59;59.42;101382.59;107293;1254;109890;-62
2023/08/21 05:49:30;;;;;;;14.90;7.10;;;;;;;23.62;58.91;101382.21;107366;1254;106683;-62
2023/08/21 05:51:58;;;;;;;21.00;8.00;;;;;;;23.70;58.80;101385.53;107130;1257;97857;-60
2023/08/21 05:54:28;;;;;;;18.50;7.40;;;;;;;23.80;58.60;101380.48;107343;1255;98350;-60
2023/08/21 05:56:56;;;;;;;16.20;7.50;;;;;;;23.87;58.54;101378.88;107315;1257;111321;-60
2023/08/21 05:59:31;;;;;;;13.90;7.60;;;;;;;23.92;58.36;101374.80;107382;1257;109243;-61
2023/08/21 06:02:01;;;;;;;22.90;8.10;;;;;;;23.98;58.52;101378.55;107370;1257;108681;-61
2023/08/21 06:04:29;;;;;;;29.00;8.00;;;;;;;24.03;58.61;101381.27;107329;1257;97832;-60
2023/08/21 06:07:03;;;;;;;17.80;7.80;;;;;;;24.08;58.46;101380.94;107356;1257;98369;-62
2023/08/21 06:09:33;;;;;;;14.70;7.40;;;;;;;24.15;58.57;101382.80;107333;1257;111468;-61
2023/08/21 06:12:03;;;;;;;22.60;7.80;;;;;;;24.17;58.71;101388.09;107263;1257;109794;-62
2023/08/21 06:14:32;;;;;;;17.70;7.70;;;;;;;24.24;58.63;101389.05;107158;1261;108119;-62
2023/08/21 06:17:03;;;;;;;14.20;7.50;;;;;;;24.28;58.59;101388.20;107300;1256;97725;-62
2023/08/21 06:19:32;;;;;;;18.70;7.70;;;;;;;24.33;58.61;101384.94;107206;1256;97749;-62
2023/08/21 06:22:00;;;;;;;20.70;6.90;;;;;;;24.39;58.31;101381.43;107243;1256;112254;-62
2023/08/21 06:24:29;;;;;;;20.10;8.20;;;;;;;24.48;58.08;101382.94;107252;1256;109707;-61
2023/08/21 06:27:02;;;;;;;20.40;7.70;;;;;;;24.58;58.34;101388.55;107353;1259;107697;-61
2023/08/21 06:29:33;;;;;;;24.90;7.30;;;;;;;24.67;58.39;101386.77;107290;1255;97837;-62
2023/08/21 06:32:03;;;;;;;22.40;7.60;;;;;;;24.75;58.63;101383.84;107272;1256;97720;-62
2023/08/21 06:34:31;;;;;;;21.80;7.70;;;;;;;24.87;58.33;101382.15;107283;1257;111948;-61
2023/08/21 06:37:00;;;;;;;15.40;7.40;;;;;;;24.98;58.41;101384.98;107326;1256;109629;-61
2023/08/21 06:39:30;;;;;;;15.30;7.00;;;;;;;25.08;58.31;101384.73;107389;1257;108309;-61
2023/08/21 06:42:00;;;;;;;20.90;6.60;;;;;;;25.20;58.08;101377.02;107288;1260;97854;-61
2023/08/21 06:44:35;;;;;;;16.80;7.70;;;;;;;25.32;57.85;101377.67;107275;1255;97723;-61
2023/08/21 06:47:04;;;;;;;10.10;6.30;;;;;;;25.41;57.58;101375.27;107252;1257;112202;-64
2023/08/21 06:49:33;;;;;;;14.30;6.50;;;;;;;25.50;57.53;101372.43;107257;1258;108691;-63
2023/08/21 06:52:02;;;;;;;12.80;6.00;;;;;;;25.59;57.01;101371.50;107340;1260;107466;-62
2023/08/21 06:54:31;;;;;;;12.80;6.70;;;;;;;25.70;56.89;101372.52;107318;1256;97941;-62
2023/08/21 06:56:59;;;;;;;19.10;7.60;;;;;;;25.76;56.61;101368.02;107379;1257;97916;-62
2023/08/21 06:59:27;;;;;;;13.30;7.40;;;;;;;25.84;56.59;101362.15;107403;1257;111237;-61
2023/08/21 07:01:55;;;;;;;14.10;7.30;;;;;;;25.91;56.19;101357.68;107323;1257;109795;-62
2023/08/21 07:04:23;;;;;;;16.40;7.00;;;;;;;26.00;56.13;101354.80;107289;1256;108466;-61
2023/08/21 07:06:52;;;;;;;12.70;6.50;;;;;;;26.10;56.04;101354.31;107133;1257;97946;-63
2023/08/21 07:09:20;;;;;;;14.40;6.30;;;;;;;26.19;55.73;101350.90;107312;1256;97950;-61
2023/08/21 07:11:48;;;;;;;15.10;6.10;;;;;;;26.27;55.46;101350.55;107418;1258;111752;-62
2023/08/21 07:14:18;;;;;;;14.30;6.70;;;;;;;26.35;55.27;101348.98;107375;1257;109717;-60
2023/08/21 07:16:46;;;;;;;9.20;6.10;;;;;;;26.41;54.77;101347.63;107361;1255;107564;-61
2023/08/21 07:19:14;;;;;;;9.90;6.50;;;;;;;26.49;54.60;101342.73;107356;1257;97908;-62
2023/08/21 07:21:43;;;;;;;20.20;9.60;;;;;;;26.59;54.10;101343.44;107393;1256;98360;-62
2023/08/21 07:24:11;;;;;;;18.50;9.40;;;;;;;26.68;53.76;101343.64;107401;1259;111729;-60
2023/08/21 07:26:40;;;;;;;16.50;8.90;;;;;;;26.74;53.71;101342.71;107301;1257;109720;-61
2023/08/21 07:29:08;;;;;;;17.50;7.20;;;;;;;26.80;53.06;101340.21;107360;1257;107827;-62
2023/08/21 07:31:37;;;;;;;16.80;6.40;;;;;;;26.88;52.92;101338.96;107340;1258;98353;-61
2023/08/21 07:34:05;;;;;;;13.80;6.30;;;;;;;26.98;52.43;101344.91;107292;1258;97927;-63
2023/08/21 07:36:33;;;;;;;17.50;6.40;;;;;;;27.05;52.09;101338.83;107339;1257;111493;-61
2023/08/21 07:39:02;;;;;;;14.90;6.20;;;;;;;27.15;52.08;101339.77;107420;1257;108738;-62
2023/08/21 07:41:30;;;;;;;23.20;9.00;;;;;;;27.27;52.45;101342.95;107380;1257;106137;-63
2023/08/21 07:43:58;;;;;;;10.70;6.00;;;;;;;27.42;52.21;101340.11;107351;1257;97828;-65
2023/08/21 07:46:27;;;;;;;15.90;6.80;;;;;;;27.54;51.77;101338.25;107334;1257;98380;-62
2023/08/21 07:48:56;;;;;;;11.30;6.20;;;;;;;27.64;51.06;101331.25;107328;1257;112050;-62
2023/08/21 07:51:24;;;;;;;20.50;5.90;;;;;;;27.74;50.80;101334.54;107310;1256;109241;-60
2023/08/21 07:53:52;;;;;;;13.30;5.50;;;;;;;27.82;50.67;101333.42;107340;1255;108141;-62
2023/08/21 07:56:20;;;;;;;14.10;8.00;;;;;;;27.94;50.72;101329.84;107288;1256;97824;-62
2023/08/21 07:58:49;;;;;;;11.30;6.50;;;;;;;28.05;50.64;101329.85;107355;1258;98401;-61
2023/08/21 08:01:17;;;;;;;15.50;6.00;;;;;;;28.18;50.39;101331.86;107158;1256;111794;-62
2023/08/21 08:03:45;;;;;;;17.10;6.10;;;;;;;28.31;49.77;101326.48;107340;1257;108610;-61
2023/08/21 08:06:13;;;;;;;17.30;6.20;;;;;;;28.42;49.35;101326.77;107339;1258;107473;-61
2023/08/21 08:08:42;;;;;;;9.40;5.30;;;;;;;28.54;49.14;101325.21;107358;1257;97837;-62
2023/08/21 08:11:10;;;;;;;12.50;5.90;;;;;;;28.65;48.79;101321.73;107313;1257;98362;-61
2023/08/21 08:13:38;;;;;;;13.90;6.10;;;;;;;28.76;48.58;101321.09;107358;1258;110934;-61
2023/08/21 08:16:07;;;;;;;14.10;5.20;;;;;;;28.84;47.36;101319.51;107300;1257;109260;-62
2023/08/21 08:18:35;;;;;;;17.70;5.30;;;;;;;28.95;47.41;101318.83;107345;1257;107813;-62
2023/08/21 08:21:04;;;;;;;10.00;5.90;;;;;;;29.07;46.94;101322.17;107338;1258;97844;-63
2023/08/21 08:23:32;;;;;;;17.00;5.60;;;;;;;29.17;46.90;101319.48;107335;1256;97719;-63
2023/08/21 08:26:00;;;;;;;19.80;5.30;;;;;;;29.31;46.86;101315.46;107373;1257;112088;-62
2023/08/21 08:28:29;;;;;;;12.10;5.20;;;;;;;29.46;47.05;101311.26;107348;1257;109931;-62
2023/08/21 08:30:57;;;;;;;10.40;5.00;;;;;;;29.58;46.01;101314.80;107312;1257;107377;-62
2023/08/21 08:33:26;;;;;;;8.10;5.00;;;;;;;29.72;45.69;101310.82;107233;1256;97959;-63
2023/08/21 08:35:55;;;;;;;14.50;5.10;;;;;;;29.86;45.16;101310.86;107247;1257;99388;-62
2023/08/21 08:38:23;;;;;;;12.40;5.60;;;;;;;29.96;44.72;101312.35;107374;1256;111919;-63
2023/08/21 08:40:55;;;;;;;14.30;5.10;;;;;;;30.01;44.33;101312.59;107315;1258;109897;-63
2023/08/21 08:43:25;;;;;;;12.30;4.30;;;;;;;30.14;43.79;101312.83;107374;1257;109689;-62
2023/08/21 08:45:58;;;;;;;13.70;4.90;;;;;;;30.25;43.76;101306.55;107307;1257;97985;-62
2023/08/21 08:48:27;;;;;;;15.30;5.70;;;;;;;30.36;43.46;101305.52;107410;1257;97677;-63
2023/08/21 08:50:56;;;;;;;12.40;5.60;;;;;;;30.51;43.24;101305.64;107414;1257;111609;-62
2023/08/21 08:53:28;;;;;;;14.10;5.00;;;;;;;30.71;43.47;101302.17;107413;1254;108822;-62
2023/08/21 08:55:58;;;;;;;11.40;5.90;;;;;;;30.98;43.19;101310.39;107431;1254;108602;-62
2023/08/21 08:58:26;;;;;;;17.80;5.60;;;;;;;31.16;42.93;101304.05;107406;1254;97756;-63
2023/08/21 09:00:54;;;;;;;12.70;5.20;;;;;;;31.37;42.83;101299.64;107388;1254;97822;-62
2023/08/21 09:03:22;;;;;;;9.30;4.50;;;;;;;31.60;41.95;101299.23;107409;1260;111147;-61
2023/08/21 09:05:51;;;;;;;14.40;4.30;;;;;;;31.83;41.25;101299.64;107410;1254;109610;-65
2023/08/21 09:08:19;;;;;;;9.10;4.30;;;;;;;32.01;40.95;101295.21;107432;1254;108434;-63
2023/08/21 09:10:48;;;;;;;9.80;3.90;;;;;;;32.27;39.58;101294.04;107456;1254;97931;-62
2023/08/21 09:13:18;;;;;;;11.50;4.30;;;;;;;32.49;38.78;101293.83;107416;1254;97857;-63
2023/08/21 09:15:48;;;;;;;15.60;3.90;;;;;;;32.74;38.81;101296.78;107273;1254;111176;-63
2023/08/21 09:18:17;;;;;;;13.60;4.10;;;;;;;32.91;37.61;101291.17;107453;1254;109681;-62
2023/08/21 09:20:45;;;;;;;13.10;4.60;;;;;;;33.12;37.64;101286.02;107449;1255;107072;-63
2023/08/21 09:23:16;;;;;;;14.30;4.20;;;;;;;33.39;37.24;101280.23;107365;1258;97927;-61
2023/08/21 09:25:49;;;;;;;15.80;5.20;;;;;;;33.57;37.32;101281.34;107435;1254;98382;-62
2023/08/21 09:28:24;;;;;;;;;;;;;;;33.83;37.83;101276.64;107388;1257;111656;-63
2023/08/21 09:30:58;;;;;;;20.90;4.50;;;;;;;34.22;36.27;101281.25;107379;1254;108879;-63
2023/08/21 09:33:27;;;;;;;8.60;4.10;;;;;;;34.31;35.59;101278.38;107346;1254;107586;-63
2023/08/21 09:35:55;;;;;;;15.00;4.80;;;;;;;34.65;36.15;101272.95;107354;1257;97925;-62
2023/08/21 09:38:26;;;;;;;13.40;4.50;;;;;;;35.23;35.46;101276.98;107426;1254;97924;-62
2023/08/21 09:40:55;;;;;;;15.60;3.50;;;;;;;35.78;33.93;101274.40;107440;1253;112088;-62
2023/08/21 09:43:24;;;;;;;15.90;3.70;;;;;;;36.42;33.24;101268.67;107387;1254;108575;-63
2023/08/21 09:45:57;;;;;;;11.10;4.60;;;;;;;37.03;31.50;101264.15;107359;1254;108671;-62
2023/08/21 09:48:29;;;;;;;19.50;3.60;;;;;;;37.51;30.75;101270.51;107431;1254;97825;-62
2023/08/21 09:51:01;;;;;;;14.90;3.90;;;;;;;38.01;29.66;101267.94;107462;1254;98343;-63
2023/08/21 09:53:30;;;;;;;12.70;3.40;;;;;;;38.40;29.64;101264.58;107390;1259;112534;-63
2023/08/21 09:56:03;;;;;;;14.90;3.10;;;;;;;38.71;28.66;101261.17;107003;1254;498762;-61
2023/08/21 09:58:31;;;;;;;7.60;3.30;;;;;;;39.08;28.01;101259.66;107408;1254;107587;-62
2023/08/21 10:01:05;;;;;;;7.30;3.60;;;;;;;39.40;27.83;101262.04;107401;1260;98110;-61
2023/08/21 10:03:36;;;;;;;7.00;3.40;;;;;;;39.76;27.76;101257.78;107385;1259;99698;-62
2023/08/21 10:06:06;;;;;;;16.70;3.70;;;;;;;40.13;26.58;101256.25;107378;1254;111811;-61
2023/08/21 10:08:41;;;;;;;6.20;3.20;;;;;;;40.42;26.84;101252.27;107433;1254;109016;-61
2023/08/21 10:11:09;;;;;;;8.30;2.80;;;;;;;40.85;26.83;101251.05;107408;1259;108282;-62
2023/08/21 10:13:39;;;;;;;8.10;4.00;;;;;;;41.20;25.63;101247.63;107403;1254;97850;-62
2023/08/21 10:16:08;;;;;;;15.10;3.50;;;;;;;41.48;25.37;101250.02;107386;1254;98440;-62
2023/08/21 10:18:44;;;;;;;10.20;2.80;;;;;;;41.67;24.47;101241.96;107389;1257;111290;-62
2023/08/21 10:21:14;;;;;;;11.80;3.30;;;;;;;41.72;24.17;101244.77;107442;1254;109793;-61
2023/08/21 10:23:47;;;;;;;7.00;2.60;;;;;;;41.81;24.83;101246.09;107405;1254;108579;-63
2023/08/21 10:26:18;;;;;;;10.10;3.30;;;;;;;42.14;24.03;101240.46;107373;1254;97933;-63
2023/08/21 10:28:50;;;;;;;9.30;2.40;;;;;;;42.45;23.81;101240.25;107469;1254;97927;-62
2023/08/21 10:31:34;;;;;;;14.50;3.60;;;;;;;42.08;23.90;101237.20;107443;1258;110964;-62
2023/08/21 10:34:13;;;;;;;12.50;3.10;;;;;;;41.11;24.28;101235.94;107473;1254;109733;-62
2023/08/21 10:36:42;;;;;;;6.40;3.00;;;;;;;40.20;25.10;101237.35;107405;1254;108594;-62
2023/08/21 10:39:18;;;;;;;10.30;3.10;;;;;;;40.38;25.21;101233.90;107379;1254;97828;-62
2023/08/21 10:41:59;;;;;;;16.30;3.20;;;;;;;40.88;24.33;101226.89;107447;1257;97828;-62
2023/08/21 10:44:40;;;;;;;14.10;3.00;;;;;;;41.16;24.62;101223.92;107404;1254;112265;-64
2023/08/21 10:47:22;;;;;;;7.70;3.60;;;;;;;40.98;24.79;101227.88;107349;1254;111198;-62
2023/08/21 10:49:56;;;;;;;6.50;3.70;;;;;;;41.52;24.56;101220.67;107333;1258;107583;-63
2023/08/21 10:52:25;;;;;;;7.00;3.00;;;;;;;41.26;24.41;101221.48;107384;1254;97869;-61
2023/08/21 10:54:55;;;;;;;15.30;3.40;;;;;;;40.72;24.79;101219.42;107443;1254;97697;-63
2023/08/21 10:57:26;;;;;;;24.70;3.80;;;;;;;40.86;24.82;101214.48;107346;1254;112528;-63
2023/08/21 10:59:58;;;;;;;8.50;3.20;;;;;;;41.14;24.14;101203.04;107448;1254;108576;-62
2023/08/21 11:02:31;;;;;;;15.30;3.70;;;;;;;41.18;24.63;101204.91;107352;1260;108605;-62
2023/08/21 11:05:02;;;;;;;9.40;3.50;;;;;;;40.62;24.27;101214.15;107377;1254;97859;-62
2023/08/21 11:07:38;;;;;;;12.30;3.40;;;;;;;40.91;24.53;101210.36;107345;1254;97816;-63
2023/08/21 11:10:10;;;;;;;5.50;3.10;;;;;;;41.49;24.15;101204.63;107452;1254;111891;-62
2023/08/21 11:12:50;;;;;;;10.00;2.90;;;;;;;42.10;23.64;101197.91;107411;1254;109287;-63
2023/08/21 11:15:19;;;;;;;7.80;3.20;;;;;;;42.11;23.31;101202.31;107337;1258;107760;-62
2023/08/21 11:18:00;;;;;;;5.50;2.80;;;;;;;41.84;23.44;101198.80;107306;1254;98091;-62